KEGK1: Cowskin Creek at Kellogg St in Wichita

Data processed at Wed May 22 2019 23:50


All information presented herein is the property of the government of the United States of America and may be revised or deleted at any time without prior notice.
Dissemination of this information without the expressed written consent of the Public Affairs Office, Tulsa District U.S. Army Corps of Engineers is strictly prohibited.
These data are gathered electronically and, as presented, have not undergone any form of quality control. These data are not guaranteed to be valid or correct.
Go to home page.
Go to station list.
Go to home page.

Upstream stations:

Downstream station:
Previous Day
Next Day
Current Day
    
SHEF ID:       KEGK1     COWSKIN C AT KELLOGG ST, WICHITA
STATION TYPE:  

               PRECIP     STAGE  RIV-FLOW  AIR-TEMP  BAT-LOAD
                   in        ft       cfs         F      volt
              Ccp-Rev   Ccp-Rev   Ccp-Rev   Ccp-Rev   Ccp-Rev
(US/Central)
05/22 00:00      0.00     17.19      2932     57.47     12.89
05/22 01:00      0.00     17.24      2983     56.01     12.81
05/22 02:00      0.00     17.23      2973     53.50     12.81
05/22 03:00      0.00     17.17      2912     52.58     12.81
05/22 04:00      0.00     17.06      2802     50.81     12.73
05/22 05:00      0.00     16.92      2667     49.19     12.73
05/22 06:00      0.00     16.78      2536     48.14     12.73
05/22 07:00      0.00     16.61      2385     47.55     12.65
05/22 08:00      0.00     16.45      2248     50.64     12.73
05/22 09:00      0.00     16.29      2117     53.43     13.37
05/22 10:00      0.00     16.14      1999     56.39     13.84
05/22 11:00      0.00     16.01      1901     60.47     13.76
05/22 12:00      0.00     15.88      1806     61.78     13.68
05/22 13:00      0.00     15.78      1736     62.98     13.60
05/22 14:00      0.00     15.67      1661     65.41     13.60
05/22 15:00      0.00     15.58      1601     67.35     13.53
05/22 16:00      0.00     15.50      1549     68.99     13.44
05/22 17:00      0.00     15.41      1493     73.13     13.29
05/22 18:00      0.00     15.33      1444     74.80     13.29
05/22 19:00      0.00     15.26      1402     71.77     13.13
05/22 20:00      0.00     15.19      1360     69.86     12.97
05/22 21:00      0.01     15.12      1320     66.58     12.89
05/22 22:00      0.00     15.06      1286     65.44     12.97
05/22 23:00      0.00     14.99      1248     64.44     12.89